createdAt,value
2023-02-09T00:01:25.075Z,17.50
2023-02-09T00:03:52.683Z,18.08
2023-02-09T00:06:22.306Z,16.25
2023-02-09T00:08:49.536Z,17.92
2023-02-09T00:11:20.897Z,16.35
2023-02-09T00:13:48.153Z,17.92
2023-02-09T00:16:16.340Z,18.23
2023-02-09T00:18:43.549Z,17.52
2023-02-09T00:21:11.769Z,17.40
2023-02-09T00:23:40.749Z,16.60
2023-02-09T00:26:11.869Z,16.50
2023-02-09T00:28:39.025Z,16.33
2023-02-09T00:31:11.204Z,17.15
2023-02-09T00:33:38.493Z,16.83
2023-02-09T00:36:12.303Z,16.42
2023-02-09T00:38:40.473Z,16.63
2023-02-09T00:41:07.766Z,17.58
2023-02-09T00:43:38.955Z,16.02
2023-02-09T00:46:06.688Z,15.35
2023-02-09T00:48:34.366Z,15.88
2023-02-09T00:51:01.997Z,16.27
2023-02-09T00:53:29.167Z,16.20
2023-02-09T00:55:56.314Z,16.95
2023-02-09T00:58:23.446Z,17.13
2023-02-09T01:01:03.434Z,16.52
2023-02-09T01:03:30.582Z,17.08
2023-02-09T01:05:59.301Z,16.38
2023-02-09T01:08:26.457Z,16.48
2023-02-09T01:10:53.689Z,17.27
2023-02-09T01:13:20.883Z,17.10
2023-02-09T01:15:48.115Z,15.75
2023-02-09T01:18:15.297Z,15.35
2023-02-09T01:20:43.072Z,16.75
2023-02-09T01:23:11.325Z,16.48
2023-02-09T01:25:38.455Z,15.60
2023-02-09T01:28:05.661Z,15.23
2023-02-09T01:30:34.188Z,15.73
2023-02-09T01:33:01.377Z,15.30
2023-02-09T01:35:29.860Z,15.10
2023-02-09T01:37:58.801Z,15.15
2023-02-09T01:40:25.970Z,15.77
2023-02-09T01:42:53.110Z,15.82
2023-02-09T01:45:34.277Z,16.95
2023-02-09T01:48:03.594Z,16.52
2023-02-09T01:50:34.657Z,15.43
2023-02-09T01:53:02.613Z,15.20
2023-02-09T01:55:32.493Z,15.95
2023-02-09T01:58:04.332Z,15.45
2023-02-09T02:00:31.538Z,15.93
2023-02-09T02:03:02.190Z,14.90
2023-02-09T02:05:29.964Z,15.25
2023-02-09T02:08:08.061Z,15.55
2023-02-09T02:10:35.244Z,13.40
2023-02-09T02:13:03.131Z,14.80
2023-02-09T02:15:38.650Z,15.00
2023-02-09T02:18:30.784Z,15.88
2023-02-09T02:21:24.310Z,14.80
2023-02-09T02:23:57.602Z,14.63
2023-02-09T02:26:56.089Z,15.82
2023-02-09T02:29:43.548Z,15.63
2023-02-09T02:32:17.236Z,14.65
2023-02-09T02:34:49.897Z,16.02
2023-02-09T02:37:49.294Z,15.57
2023-02-09T02:40:50.119Z,16.08
2023-02-09T02:43:23.062Z,15.38
2023-02-09T02:45:59.157Z,15.50
2023-02-09T02:48:46.350Z,15.32
2023-02-09T02:51:36.309Z,15.07
2023-02-09T02:54:07.686Z,14.57
2023-02-09T02:56:38.201Z,15.20
2023-02-09T02:59:10.174Z,14.93
2023-02-09T03:01:49.600Z,15.60
2023-02-09T03:04:18.134Z,15.55
2023-02-09T03:06:45.388Z,14.70
2023-02-09T03:09:12.566Z,16.25
2023-02-09T03:11:42.847Z,14.68
2023-02-09T03:14:37.519Z,15.38
2023-02-09T03:17:25.115Z,14.77
2023-02-09T03:19:59.451Z,14.50
2023-02-09T03:22:37.151Z,13.90
2023-02-09T03:25:22.465Z,14.23
2023-02-09T03:28:01.494Z,14.00
2023-02-09T03:30:29.035Z,14.77
2023-02-09T03:32:56.412Z,14.07
2023-02-09T03:35:33.606Z,14.38
2023-02-09T03:38:01.382Z,15.15
2023-02-09T03:40:28.684Z,13.88
2023-02-09T03:42:55.946Z,14.45
2023-02-09T03:45:23.216Z,15.00
2023-02-09T03:47:50.414Z,13.15
2023-02-09T03:50:17.891Z,14.57
2023-02-09T03:52:45.087Z,13.93
2023-02-09T03:55:12.270Z,14.25
2023-02-09T03:57:39.601Z,14.55
2023-02-09T04:00:07.604Z,13.23
2023-02-09T04:02:34.843Z,14.77
2023-02-09T04:05:02.953Z,14.40
2023-02-09T04:07:31.390Z,14.60
2023-02-09T04:09:58.598Z,14.02
2023-02-09T04:12:25.864Z,14.68
2023-02-09T04:14:53.867Z,13.77
2023-02-09T04:17:21.340Z,13.32
2023-02-09T04:20:13.841Z,13.32
2023-02-09T04:22:41.073Z,14.82
2023-02-09T04:25:08.267Z,14.23
2023-02-09T04:27:35.396Z,15.15
2023-02-09T04:30:02.584Z,14.73
2023-02-09T04:32:29.830Z,14.40
2023-02-09T04:34:57.171Z,14.30
2023-02-09T04:37:24.482Z,13.85
2023-02-09T04:39:51.693Z,14.02
2023-02-09T04:42:18.973Z,13.55
2023-02-09T04:44:46.342Z,15.10
2023-02-09T04:47:13.525Z,14.55
2023-02-09T04:49:42.541Z,15.40
2023-02-09T04:52:09.873Z,14.35
2023-02-09T04:54:37.021Z,16.05
2023-02-09T04:57:22.709Z,15.43
2023-02-09T04:59:49.993Z,15.38
2023-02-09T05:02:17.284Z,16.02
2023-02-09T05:04:44.536Z,14.68
2023-02-09T05:07:12.000Z,15.18
2023-02-09T05:09:39.193Z,15.70
2023-02-09T05:12:09.955Z,14.45
2023-02-09T05:14:37.212Z,15.45
2023-02-09T05:17:04.431Z,15.15
2023-02-09T05:19:31.640Z,15.45
2023-02-09T05:21:58.884Z,16.88
2023-02-09T05:24:26.019Z,15.07
2023-02-09T05:26:53.206Z,16.90
2023-02-09T05:29:22.187Z,15.45
2023-02-09T05:31:49.602Z,15.68
2023-02-09T05:34:16.838Z,15.93
2023-02-09T05:36:44.002Z,16.63
2023-02-09T05:39:11.178Z,16.70
2023-02-09T05:41:57.243Z,14.75
2023-02-09T05:44:24.826Z,16.90
2023-02-09T05:46:52.030Z,16.92
2023-02-09T05:49:19.276Z,16.52
2023-02-09T05:51:46.490Z,16.77
2023-02-09T05:54:13.710Z,16.92
2023-02-09T05:56:40.877Z,17.48
2023-02-09T05:59:08.097Z,17.35
2023-02-09T06:01:35.489Z,17.05
2023-02-09T06:04:02.782Z,17.00
2023-02-09T06:06:29.999Z,16.52
2023-02-09T06:08:57.138Z,17.45
2023-02-09T06:11:49.736Z,16.20
2023-02-09T06:14:17.689Z,17.65
2023-02-09T06:16:46.084Z,16.02
2023-02-09T06:19:18.704Z,15.57
2023-02-09T06:22:11.110Z,17.33
2023-02-09T06:24:38.299Z,17.73
2023-02-09T06:27:05.412Z,17.42
2023-02-09T06:29:32.626Z,18.15
2023-02-09T06:31:59.815Z,17.02
2023-02-09T06:34:27.227Z,17.70
2023-02-09T06:36:54.445Z,16.77
2023-02-09T06:39:21.666Z,16.50
2023-02-09T06:41:48.828Z,17.25
2023-02-09T06:44:16.014Z,17.65
2023-02-09T06:46:43.406Z,17.60
2023-02-09T06:49:10.588Z,16.52
2023-02-09T06:51:38.064Z,18.88
2023-02-09T06:54:05.423Z,16.92
2023-02-09T06:56:32.567Z,16.27
2023-02-09T06:58:59.700Z,17.48
2023-02-09T07:01:27.989Z,18.77
2023-02-09T07:03:55.277Z,17.73
2023-02-09T07:06:22.867Z,18.13
2023-02-09T07:08:50.808Z,18.38
2023-02-09T07:11:18.903Z,19.05
2023-02-09T07:13:46.769Z,17.73
2023-02-09T07:16:14.435Z,16.90
2023-02-09T07:18:42.315Z,16.52
2023-02-09T07:21:19.878Z,16.67
2023-02-09T07:23:47.884Z,17.20
2023-02-09T07:26:16.610Z,16.00
2023-02-09T07:28:44.045Z,16.98
2023-02-09T07:31:13.193Z,16.58
2023-02-09T07:33:40.514Z,16.83
2023-02-09T07:36:10.006Z,18.23
2023-02-09T07:38:38.103Z,17.23
2023-02-09T07:41:06.880Z,16.77
2023-02-09T07:43:34.695Z,17.27
2023-02-09T07:46:06.259Z,17.25
2023-02-09T07:48:34.347Z,16.20
2023-02-09T07:51:01.808Z,16.90
2023-02-09T07:53:29.453Z,15.98
2023-02-09T07:55:56.863Z,16.83
2023-02-09T07:58:24.324Z,16.65
2023-02-09T08:00:51.763Z,16.65
2023-02-09T08:03:21.074Z,17.45
2023-02-09T08:06:01.141Z,17.35
2023-02-09T08:08:28.530Z,15.45
2023-02-09T08:10:56.929Z,16.60
2023-02-09T08:13:26.429Z,15.80
2023-02-09T08:15:56.749Z,16.20
2023-02-09T08:18:26.882Z,15.98
2023-02-09T08:20:54.172Z,15.07
2023-02-09T08:23:30.514Z,16.42
2023-02-09T08:25:59.646Z,14.57
2023-02-09T08:28:41.734Z,15.05
2023-02-09T08:31:15.487Z,14.98
2023-02-09T08:33:45.167Z,15.18
2023-02-09T08:36:13.094Z,14.85
2023-02-09T08:38:40.343Z,14.70
2023-02-09T08:41:09.378Z,14.82
2023-02-09T08:43:36.794Z,16.35
2023-02-09T08:46:13.509Z,14.00
2023-02-09T08:48:43.160Z,14.88
2023-02-09T08:51:11.695Z,14.93
2023-02-09T08:53:39.493Z,15.25
2023-02-09T08:56:07.063Z,15.27
2023-02-09T08:58:34.963Z,14.95
2023-02-09T09:01:02.297Z,14.73
2023-02-09T09:03:31.580Z,15.25
2023-02-09T09:06:00.550Z,15.57
2023-02-09T09:08:28.332Z,14.10
2023-02-09T09:10:55.659Z,13.80
2023-02-09T09:13:24.312Z,14.77
2023-02-09T09:15:52.648Z,15.60
2023-02-09T09:18:19.839Z,15.32
2023-02-09T09:20:47.454Z,14.85
2023-02-09T09:23:15.160Z,16.17
2023-02-09T09:25:42.838Z,14.80
2023-02-09T09:28:10.244Z,13.88
2023-02-09T09:30:37.466Z,15.43
2023-02-09T09:33:05.279Z,14.35
2023-02-09T09:35:32.489Z,15.02
2023-02-09T09:38:00.757Z,15.13
2023-02-09T09:40:33.850Z,14.95
2023-02-09T09:43:03.816Z,14.32
2023-02-09T09:45:33.399Z,14.95
2023-02-09T09:48:00.801Z,14.00
2023-02-09T09:50:32.948Z,14.25
2023-02-09T09:53:14.829Z,13.23
2023-02-09T09:55:42.311Z,13.85
2023-02-09T09:58:16.216Z,14.20
2023-02-09T10:00:43.610Z,13.43
2023-02-09T10:03:18.310Z,13.25
2023-02-09T10:05:48.770Z,13.60
2023-02-09T10:08:24.165Z,13.43
2023-02-09T10:10:58.378Z,12.23
2023-02-09T10:13:32.388Z,13.10
2023-02-09T10:15:59.693Z,12.25
2023-02-09T10:18:29.191Z,12.63
2023-02-09T10:21:07.625Z,11.38
2023-02-09T10:23:45.583Z,12.52
2023-02-09T10:26:12.701Z,13.15
2023-02-09T10:28:42.535Z,12.48
2023-02-09T10:31:13.799Z,12.00
2023-02-09T10:33:43.339Z,12.15
2023-02-09T10:36:32.080Z,12.60
2023-02-09T10:39:09.805Z,12.02
2023-02-09T10:41:38.162Z,12.95
2023-02-09T10:44:08.836Z,13.13
2023-02-09T10:46:38.036Z,11.45
2023-02-09T10:49:31.016Z,12.75
2023-02-09T10:52:15.907Z,11.20
2023-02-09T10:54:57.415Z,12.73
2023-02-09T10:57:30.606Z,12.30
2023-02-09T11:00:00.700Z,11.07
2023-02-09T11:02:36.395Z,10.57
2023-02-09T11:05:23.454Z,11.70
2023-02-09T11:07:58.400Z,10.98
2023-02-09T11:10:27.825Z,11.40
2023-02-09T11:12:55.458Z,10.57
2023-02-09T11:15:26.581Z,11.07
2023-02-09T11:18:05.869Z,11.18
2023-02-09T11:20:36.107Z,11.15
2023-02-09T11:23:33.485Z,9.27
2023-02-09T11:26:24.051Z,9.60
2023-02-09T11:28:53.925Z,9.95
2023-02-09T11:31:35.760Z,9.70
2023-02-09T11:34:33.924Z,10.18
2023-02-09T11:37:19.642Z,9.75
2023-02-09T11:40:05.881Z,9.43
2023-02-09T11:45:19.599Z,9.25
2023-02-09T11:47:46.773Z,10.10
2023-02-09T11:50:39.933Z,9.85
2023-02-09T11:53:42.124Z,9.82
2023-02-09T11:56:12.436Z,10.13
2023-02-09T11:58:53.694Z,10.07
2023-02-09T12:01:26.681Z,10.23
2023-02-09T12:03:59.486Z,11.35
2023-02-09T12:06:30.142Z,11.35
2023-02-09T12:09:03.693Z,9.65
2023-02-09T12:11:37.847Z,10.10
2023-02-09T12:14:34.602Z,10.93
2023-02-09T12:17:15.414Z,9.38
2023-02-09T12:19:45.459Z,10.43
2023-02-09T12:22:34.606Z,10.43
2023-02-09T12:25:38.608Z,10.15
2023-02-09T12:28:08.655Z,9.55
2023-02-09T12:30:45.169Z,9.82
2023-02-09T12:33:30.866Z,10.40
2023-02-09T12:36:02.970Z,9.80
2023-02-09T12:39:04.787Z,9.80
2023-02-09T12:41:35.025Z,10.70
2023-02-09T12:44:08.790Z,9.90
2023-02-09T12:46:44.784Z,9.63
2023-02-09T12:49:11.920Z,8.25
2023-02-09T12:51:52.703Z,7.97
2023-02-09T12:54:47.245Z,8.10
2023-02-09T12:57:17.368Z,8.88
2023-02-09T12:59:50.721Z,8.48
2023-02-09T13:02:49.866Z,8.63
2023-02-09T13:05:25.551Z,9.00
2023-02-09T13:10:41.282Z,8.65
2023-02-09T13:13:11.291Z,9.27
2023-02-09T13:15:52.014Z,8.30
2023-02-09T13:18:56.781Z,8.98
2023-02-09T13:21:35.938Z,9.07
2023-02-09T13:24:18.369Z,9.05
2023-02-09T13:26:57.120Z,8.35
2023-02-09T13:29:31.757Z,8.85
2023-02-09T13:32:16.806Z,9.23
2023-02-09T13:34:46.381Z,8.90
2023-02-09T13:37:40.642Z,8.70
2023-02-09T13:40:27.679Z,8.95
2023-02-09T13:42:58.758Z,8.85
2023-02-09T13:45:27.189Z,9.80
2023-02-09T13:47:56.069Z,9.07
2023-02-09T13:50:25.271Z,9.27
2023-02-09T13:52:52.485Z,9.70
2023-02-09T13:55:24.866Z,9.38
2023-02-09T13:57:54.430Z,9.93
2023-02-09T14:00:30.336Z,8.77
2023-02-09T14:02:59.869Z,9.23
2023-02-09T14:05:31.377Z,9.68
2023-02-09T14:07:59.186Z,8.80
2023-02-09T14:10:28.099Z,8.45
2023-02-09T14:13:00.734Z,8.75
2023-02-09T14:16:00.087Z,9.32
2023-02-09T14:18:30.314Z,8.40
2023-02-09T14:21:14.385Z,9.40
2023-02-09T14:23:49.563Z,9.15
2023-02-09T14:26:25.122Z,9.45
2023-02-09T14:29:03.784Z,10.00
2023-02-09T14:31:34.256Z,9.63
2023-02-09T14:34:01.450Z,9.30
2023-02-09T14:36:32.414Z,10.60
2023-02-09T14:39:16.705Z,9.30
2023-02-09T14:42:01.843Z,10.02
2023-02-09T14:44:29.922Z,9.95
2023-02-09T14:46:59.174Z,9.82
2023-02-09T14:49:27.397Z,10.48
2023-02-09T14:52:15.050Z,10.48
2023-02-09T14:54:46.987Z,10.57
2023-02-09T14:57:14.182Z,8.88
2023-02-09T14:59:41.429Z,10.18
2023-02-09T15:02:23.929Z,9.93
2023-02-09T15:04:51.307Z,9.82
2023-02-09T15:07:21.252Z,10.10
2023-02-09T15:09:49.068Z,9.45
2023-02-09T15:12:42.678Z,9.13
2023-02-09T15:15:14.411Z,9.13
2023-02-09T15:17:41.688Z,9.15
2023-02-09T15:20:12.843Z,10.13
2023-02-09T15:22:40.041Z,9.50
2023-02-09T15:25:07.241Z,9.80
2023-02-09T15:27:43.637Z,8.52
2023-02-09T15:30:24.402Z,8.75
2023-02-09T15:32:52.094Z,9.07
2023-02-09T15:35:25.189Z,8.52
2023-02-09T15:37:57.982Z,9.75
2023-02-09T15:40:51.234Z,8.13
2023-02-09T15:43:38.637Z,9.18
2023-02-09T15:46:25.024Z,9.25
2023-02-09T15:48:52.200Z,9.25
2023-02-09T15:51:19.747Z,9.98
2023-02-09T15:53:47.213Z,9.68
2023-02-09T15:56:15.418Z,9.55
2023-02-09T15:58:44.861Z,9.07
2023-02-09T16:01:13.689Z,10.00
2023-02-09T16:03:41.202Z,10.07
2023-02-09T16:06:26.532Z,10.48
2023-02-09T16:08:53.958Z,10.20
2023-02-09T16:11:32.749Z,10.25
2023-02-09T16:14:00.012Z,10.38
2023-02-09T16:16:28.278Z,10.70
2023-02-09T16:18:55.496Z,10.85
2023-02-09T16:21:24.144Z,11.75
2023-02-09T16:23:52.890Z,11.00
2023-02-09T16:26:21.036Z,11.80
2023-02-09T16:28:48.348Z,10.18
2023-02-09T16:31:15.693Z,10.38
2023-02-09T16:33:43.438Z,10.70
2023-02-09T16:36:15.607Z,10.82
2023-02-09T16:38:43.182Z,12.00
2023-02-09T16:41:33.924Z,12.48
2023-02-09T16:44:02.198Z,10.80
2023-02-09T16:46:30.816Z,11.70
2023-02-09T16:48:58.789Z,11.55
2023-02-09T16:51:25.977Z,11.95
2023-02-09T16:53:53.148Z,12.15
2023-02-09T16:56:20.549Z,11.55
2023-02-09T16:58:48.102Z,12.52
2023-02-09T17:01:18.559Z,12.32
2023-02-09T17:03:48.610Z,12.65
2023-02-09T17:06:21.737Z,11.40
2023-02-09T17:08:49.451Z,11.98
2023-02-09T17:11:19.357Z,12.38
2023-02-09T17:13:46.680Z,13.02
2023-02-09T17:16:25.763Z,12.45
2023-02-09T17:18:59.282Z,11.95
2023-02-09T17:21:28.389Z,11.40
2023-02-09T17:23:57.484Z,12.60
2023-02-09T17:26:24.902Z,12.18
2023-02-09T17:28:52.216Z,12.10
2023-02-09T17:31:23.954Z,11.80
2023-02-09T17:33:53.262Z,10.98
2023-02-09T17:36:26.935Z,12.10
2023-02-09T17:38:56.899Z,10.95
2023-02-09T17:41:34.275Z,11.63
2023-02-09T17:44:24.227Z,11.48
2023-02-09T17:46:56.324Z,11.55
2023-02-09T17:49:23.583Z,10.98
2023-02-09T17:51:51.496Z,11.45
2023-02-09T17:54:20.588Z,12.38
2023-02-09T17:56:47.809Z,11.85
2023-02-09T17:59:19.418Z,11.13
2023-02-09T18:01:49.529Z,10.23
2023-02-09T18:04:21.475Z,10.30
2023-02-09T18:06:49.039Z,11.15
2023-02-09T18:09:16.401Z,10.82
2023-02-09T18:11:46.311Z,11.35
2023-02-09T18:14:15.637Z,10.57
2023-02-09T18:16:43.472Z,9.57
2023-02-09T18:19:11.797Z,10.00
2023-02-09T18:21:44.910Z,10.63
2023-02-09T18:24:12.125Z,9.35
2023-02-09T18:26:39.305Z,10.57
2023-02-09T18:29:06.483Z,10.75
2023-02-09T18:31:34.486Z,9.65
2023-02-09T18:34:02.077Z,9.73
2023-02-09T18:36:29.398Z,10.30
2023-02-09T18:38:56.676Z,10.70
2023-02-09T18:41:24.720Z,10.75
2023-02-09T18:43:54.173Z,9.80
2023-02-09T18:46:24.372Z,10.57
2023-02-09T18:48:51.700Z,10.15
2023-02-09T18:51:18.939Z,10.63
2023-02-09T18:53:46.224Z,10.05
2023-02-09T18:56:20.783Z,11.48
2023-02-09T18:58:50.008Z,11.40
2023-02-09T19:01:19.665Z,10.85
2023-02-09T19:03:50.202Z,10.00
2023-02-09T19:06:17.939Z,11.23
2023-02-09T19:08:45.136Z,11.38
2023-02-09T19:11:14.203Z,11.13
2023-02-09T19:13:41.546Z,11.52
2023-02-09T19:16:12.820Z,10.82
2023-02-09T19:18:40.008Z,10.27
2023-02-09T19:21:09.615Z,10.80
2023-02-09T19:23:37.071Z,11.02
2023-02-09T19:26:05.773Z,12.20
2023-02-09T19:28:35.003Z,11.55
2023-02-09T19:31:02.369Z,11.52
2023-02-09T19:33:29.492Z,11.88
2023-02-09T19:35:57.751Z,11.98
2023-02-09T19:38:26.432Z,11.30
2023-02-09T19:41:08.527Z,12.13
2023-02-09T19:43:37.977Z,11.57
2023-02-09T19:46:05.711Z,11.50
2023-02-09T19:48:33.213Z,11.80
2023-02-09T19:51:00.416Z,11.75
2023-02-09T19:53:27.833Z,11.68
2023-02-09T19:55:55.110Z,12.25
2023-02-09T19:58:22.473Z,11.57
2023-02-09T20:00:51.002Z,13.38
2023-02-09T20:03:18.731Z,11.57
2023-02-09T20:05:46.507Z,12.00
2023-02-09T20:08:18.841Z,13.70
2023-02-09T20:10:46.544Z,13.57
2023-02-09T20:13:14.759Z,13.13
2023-02-09T20:15:43.460Z,14.02
2023-02-09T20:18:12.193Z,12.60
2023-02-09T20:20:41.567Z,13.15
2023-02-09T20:23:09.616Z,12.65
2023-02-09T20:25:40.399Z,14.15
2023-02-09T20:28:07.808Z,13.45
2023-02-09T20:30:35.406Z,11.55
2023-02-09T20:33:02.622Z,13.75
2023-02-09T20:35:29.810Z,13.35
2023-02-09T20:37:57.032Z,13.65
2023-02-09T20:40:24.235Z,12.25
2023-02-09T20:43:10.401Z,13.30
2023-02-09T20:48:23.206Z,12.80
2023-02-09T20:50:50.336Z,12.82
2023-02-09T20:53:17.576Z,12.27
2023-02-09T20:55:44.791Z,13.02
2023-02-09T20:58:13.639Z,12.63
2023-02-09T21:00:42.308Z,13.77
2023-02-09T21:03:09.567Z,12.95
2023-02-09T21:05:36.867Z,12.65
2023-02-09T21:08:04.555Z,12.90
2023-02-09T21:10:37.948Z,12.07
2023-02-09T21:13:06.282Z,13.25
2023-02-09T21:15:33.563Z,13.23
2023-02-09T21:18:00.833Z,12.20
2023-02-09T21:20:28.056Z,12.50
2023-02-09T21:22:55.254Z,12.82
2023-02-09T21:25:22.415Z,12.38
2023-02-09T21:27:49.664Z,12.43
2023-02-09T21:30:16.838Z,12.63
2023-02-09T21:32:44.304Z,13.23
2023-02-09T21:35:11.520Z,13.70
2023-02-09T21:37:39.315Z,13.40
2023-02-09T21:40:07.238Z,12.10
2023-02-09T21:42:36.732Z,13.15
2023-02-09T21:45:04.439Z,13.63
2023-02-09T21:47:33.946Z,13.15
2023-02-09T21:50:01.323Z,13.77
2023-02-09T21:52:29.855Z,12.95
2023-02-09T21:54:57.662Z,12.38
2023-02-09T21:57:25.984Z,12.23
2023-02-09T21:59:53.647Z,12.38
2023-02-09T22:02:21.076Z,12.30
2023-02-09T22:04:50.096Z,13.30
2023-02-09T22:07:17.318Z,11.95
2023-02-09T22:09:44.466Z,11.55
2023-02-09T22:12:11.691Z,12.27
2023-02-09T22:14:38.905Z,12.75
2023-02-09T22:17:06.098Z,12.88
2023-02-09T22:19:33.272Z,12.20
2023-02-09T22:22:01.514Z,12.55
2023-02-09T22:24:29.992Z,13.48
2023-02-09T22:26:57.755Z,13.02
2023-02-09T22:29:25.270Z,13.00
2023-02-09T22:31:52.529Z,12.55
2023-02-09T22:34:19.688Z,13.52
2023-02-09T22:36:46.892Z,12.98
2023-02-09T22:39:14.034Z,12.18
2023-02-09T22:41:44.287Z,12.15
2023-02-09T22:44:12.494Z,11.82
2023-02-09T22:46:41.399Z,11.43
2023-02-09T22:49:13.182Z,12.32
2023-02-09T22:51:40.377Z,12.95
2023-02-09T22:54:07.575Z,12.27
2023-02-09T22:56:35.167Z,12.75
2023-02-09T22:59:02.352Z,13.40
2023-02-09T23:01:30.131Z,11.95
2023-02-09T23:03:57.862Z,11.98
2023-02-09T23:06:27.300Z,13.32
2023-02-09T23:08:56.614Z,12.13
2023-02-09T23:11:23.879Z,12.25
2023-02-09T23:14:03.807Z,11.65
2023-02-09T23:16:36.064Z,12.43
2023-02-09T23:19:07.223Z,12.38
2023-02-09T23:21:36.984Z,13.15
2023-02-09T23:24:04.469Z,12.40
2023-02-09T23:26:31.795Z,11.52
2023-02-09T23:29:00.639Z,12.45
2023-02-09T23:31:28.756Z,11.82
2023-02-09T23:33:56.097Z,13.60
2023-02-09T23:36:25.455Z,13.05
2023-02-09T23:38:57.309Z,13.30
2023-02-09T23:41:25.160Z,14.65
2023-02-09T23:43:52.952Z,14.57
2023-02-09T23:46:22.355Z,14.85
2023-02-09T23:48:54.804Z,14.68
2023-02-09T23:51:26.409Z,16.33
2023-02-09T23:53:55.033Z,16.23
2023-02-09T23:56:22.417Z,15.18
2023-02-09T23:58:50.908Z,16.55
